PWSweather.com
Personal Weather Stations
Station Observations
KCAFRAZI5
West End Drive Area, Frazier Park, CA 93225

West End Drive AreaFrazier Park, CA 93225

Lat: 34.82109, Lon: -118.96053

Elevation: 4940

Station Type: Davis Vantage Pro 2

http://www.fpweather.com

High Low Average
Temperature 85.7°F29.8°F 55.9°F13.3°F 72.1°F22.3°F
Dew Point 41.4°F5.2°F 34.5°F1.4°F 37.0°F2.8°F
Winds 11.0 mph -17.7 mph - Calm Calm 3.7 mph 6.0 mph
Wind Gusts 11.0 mph17.7 mph -- 5.5 mph8.9 mph
Humidity 46% 17% 29%
Pressure 29.92 in1013.20 in 29.84 in1010.50 in -
Precipitation 0.00 in0.00 in - -
Hour Temp Dew Point Humidity Winds Wind Gusts Pressure Precip Precip Rate Daily Precip Total
12:00 AM 64.6°F18.1°C 36.4°F2.4°C 35% 3.0 mph S4.8 kmh S 3.0 mph4.8 kmh 29.86 in1011.2 mb 0.00 in0.0 mm 0.00 in0.0 mm 0.00 in0.0 mm
12:15 AM 63.3°F17.4°C 35.2°F1.8°C 35% 4.0 mph S6.4 kmh S 5.0 mph8.0 kmh 29.87 in1011.5 mb 0.00 in0.0 mm 0.00 in0.0 mm 0.00 in0.0 mm
12:30 AM 63.6°F17.6°C 35.5°F1.9°C 35% 11.0 mph SSE17.7 kmh SSE 11.0 mph17.7 kmh 29.86 in1011.2 mb 0.00 in0.0 mm 0.00 in0.0 mm 0.00 in0.0 mm
12:45 AM 63.0°F17.2°C 34.9°F1.6°C 35% 4.0 mph S6.4 kmh S 5.0 mph8.0 kmh 29.85 in1010.8 mb 0.00 in0.0 mm 0.00 in0.0 mm 0.00 in0.0 mm
01:00 AM 62.2°F16.8°C 34.9°F1.6°C 36% 5.0 mph S8.0 kmh S 6.0 mph9.7 kmh 29.86 in1011.2 mb 0.00 in0.0 mm 0.00 in0.0 mm 0.00 in0.0 mm
01:15 AM 60.8°F16.0°C 35.1°F1.7°C 38% 1.0 mph S1.6 kmh S 4.0 mph6.4 kmh 29.86 in1011.2 mb 0.00 in0.0 mm 0.00 in0.0 mm 0.00 in0.0 mm
01:30 AM 60.8°F16.0°C 35.1°F1.7°C 38% 5.0 mph S8.0 kmh S 5.0 mph8.0 kmh 29.86 in1011.2 mb 0.00 in0.0 mm 0.00 in0.0 mm 0.00 in0.0 mm
01:45 AM 60.9°F16.1°C 34.5°F1.4°C 37% 5.0 mph S8.0 kmh S 6.0 mph9.7 kmh 29.86 in1011.2 mb 0.00 in0.0 mm 0.00 in0.0 mm 0.00 in0.0 mm
02:00 AM 59.8°F15.4°C 34.8°F1.6°C 39% 6.0 mph S9.7 kmh S 6.0 mph9.7 kmh 29.86 in1011.2 mb 0.00 in0.0 mm 0.00 in0.0 mm 0.00 in0.0 mm
02:15 AM 60.3°F15.7°C 34.6°F1.4°C 38% 4.0 mph S6.4 kmh S 7.0 mph11.3 kmh 29.86 in1011.2 mb 0.00 in0.0 mm 0.00 in0.0 mm 0.00 in0.0 mm
02:30 AM 60.0°F15.6°C 35.0°F1.7°C 39% 6.0 mph S9.7 kmh S 6.0 mph9.7 kmh 29.85 in1010.8 mb 0.00 in0.0 mm 0.00 in0.0 mm 0.00 in0.0 mm
02:45 AM 58.6°F14.8°C 35.0°F1.7°C 41% 4.0 mph SSE6.4 kmh SSE 7.0 mph11.3 kmh 29.86 in1011.2 mb 0.00 in0.0 mm 0.00 in0.0 mm 0.00 in0.0 mm
03:00 AM 59.8°F15.4°C 34.8°F1.6°C 39% 6.0 mph S9.7 kmh S 7.0 mph11.3 kmh 29.85 in1010.8 mb 0.00 in0.0 mm 0.00 in0.0 mm 0.00 in0.0 mm
03:15 AM 57.9°F14.4°C 35.0°F1.7°C 42% 4.0 mph S6.4 kmh S 4.0 mph6.4 kmh 29.85 in1010.8 mb 0.00 in0.0 mm 0.00 in0.0 mm 0.00 in0.0 mm
03:30 AM 58.3°F14.6°C 35.3°F1.8°C 42% 4.0 mph S6.4 kmh S 5.0 mph8.0 kmh 29.85 in1010.8 mb 0.00 in0.0 mm 0.00 in0.0 mm 0.00 in0.0 mm
03:45 AM 57.6°F14.2°C 35.3°F1.8°C 43% 3.0 mph SSE4.8 kmh SSE 4.0 mph6.4 kmh 29.85 in1010.8 mb 0.00 in0.0 mm 0.00 in0.0 mm 0.00 in0.0 mm
04:00 AM 57.6°F14.2°C 35.3°F1.8°C 43% 5.0 mph S8.0 kmh S 5.0 mph8.0 kmh 29.85 in1010.8 mb 0.00 in0.0 mm 0.00 in0.0 mm 0.00 in0.0 mm
04:15 AM 57.2°F14.0°C 34.9°F1.6°C 43% 4.0 mph S6.4 kmh S 4.0 mph6.4 kmh 29.86 in1011.2 mb 0.00 in0.0 mm 0.00 in0.0 mm 0.00 in0.0 mm
04:30 AM 56.8°F13.8°C 35.1°F1.7°C 44% 4.0 mph S6.4 kmh S 5.0 mph8.0 kmh 29.87 in1011.5 mb 0.00 in0.0 mm 0.00 in0.0 mm 0.00 in0.0 mm
04:45 AM 57.1°F13.9°C 35.4°F1.9°C 44% 5.0 mph S8.0 kmh S 5.0 mph8.0 kmh 29.87 in1011.5 mb 0.00 in0.0 mm 0.00 in0.0 mm 0.00 in0.0 mm
05:00 AM 56.6°F13.7°C 35.5°F1.9°C 45% 3.0 mph S4.8 kmh S 5.0 mph8.0 kmh 29.87 in1011.5 mb 0.00 in0.0 mm 0.00 in0.0 mm 0.00 in0.0 mm
05:15 AM 56.6°F13.7°C 35.5°F1.9°C 45% 4.0 mph S6.4 kmh S 6.0 mph9.7 kmh 29.87 in1011.5 mb 0.00 in0.0 mm 0.00 in0.0 mm 0.00 in0.0 mm
05:30 AM 56.3°F13.5°C 35.8°F2.1°C 46% 2.0 mph S3.2 kmh S 5.0 mph8.0 kmh 29.87 in1011.5 mb 0.00 in0.0 mm 0.00 in0.0 mm 0.00 in0.0 mm
05:45 AM 56.6°F13.7°C 35.5°F1.9°C 45% 7.0 mph S11.3 kmh S 8.0 mph12.9 kmh 29.87 in1011.5 mb 0.00 in0.0 mm 0.00 in0.0 mm 0.00 in0.0 mm
06:00 AM 56.2°F13.4°C 35.7°F2.1°C 46% 6.0 mph S9.7 kmh S 6.0 mph9.7 kmh 29.87 in1011.5 mb 0.00 in0.0 mm 0.00 in0.0 mm 0.00 in0.0 mm
06:15 AM 55.9°F13.3°C 35.4°F1.9°C 46% 6.0 mph S9.7 kmh S 6.0 mph9.7 kmh 29.88 in1011.9 mb 0.00 in0.0 mm 0.00 in0.0 mm 0.00 in0.0 mm
06:30 AM 56.6°F13.7°C 35.5°F1.9°C 45% 3.0 mph S4.8 kmh S 4.0 mph6.4 kmh 29.89 in1012.2 mb 0.00 in0.0 mm 0.00 in0.0 mm 0.00 in0.0 mm
06:45 AM 56.5°F13.6°C 35.4°F1.9°C 45% 4.0 mph S6.4 kmh S 6.0 mph9.7 kmh 29.88 in1011.9 mb 0.00 in0.0 mm 0.00 in0.0 mm 0.00 in0.0 mm
07:00 AM 58.0°F14.4°C 35.1°F1.7°C 42% 4.0 mph S6.4 kmh S 6.0 mph9.7 kmh 29.88 in1011.9 mb 0.00 in0.0 mm 0.00 in0.0 mm 0.00 in0.0 mm
07:15 AM 59.7°F15.4°C 36.0°F2.2°C 41% 7.0 mph S11.3 kmh S 7.0 mph11.3 kmh 29.88 in1011.9 mb 0.00 in0.0 mm 0.00 in0.0 mm 0.00 in0.0 mm
07:30 AM 61.2°F16.2°C 36.1°F2.3°C 39% 5.0 mph SSE8.0 kmh SSE 7.0 mph11.3 kmh 29.89 in1012.2 mb 0.00 in0.0 mm 0.00 in0.0 mm 0.00 in0.0 mm
07:45 AM 64.4°F18.0°C 35.5°F1.9°C 34% 9.0 mph S14.5 kmh S 10.0 mph16.1 kmh 29.88 in1011.9 mb 0.00 in0.0 mm 0.00 in0.0 mm 0.00 in0.0 mm
08:00 AM 68.0°F20.0°C 35.4°F1.9°C 30% 7.0 mph SSE11.3 kmh SSE 10.0 mph16.1 kmh 29.87 in1011.5 mb 0.00 in0.0 mm 0.00 in0.0 mm 0.00 in0.0 mm
08:15 AM 71.7°F22.1°C 36.0°F2.2°C 27% 5.0 mph SSE8.0 kmh SSE 5.0 mph8.0 kmh 29.85 in1010.8 mb 0.00 in0.0 mm 0.00 in0.0 mm 0.00 in0.0 mm
08:30 AM 75.0°F23.9°C 36.8°F2.7°C 25% Calm Calm 2.0 mph3.2 kmh 29.87 in1011.5 mb 0.00 in0.0 mm 0.00 in0.0 mm 0.00 in0.0 mm
08:45 AM 78.1°F25.6°C 37.3°F2.9°C 23% 2.0 mph NNE3.2 kmh NNE 5.0 mph8.0 kmh 29.85 in1010.8 mb 0.00 in0.0 mm 0.00 in0.0 mm 0.00 in0.0 mm
09:00 AM 78.8°F26.0°C 36.8°F2.7°C 22% 4.0 mph N6.4 kmh N 4.0 mph6.4 kmh 29.85 in1010.8 mb 0.00 in0.0 mm 0.00 in0.0 mm 0.00 in0.0 mm
09:15 AM 80.1°F26.7°C 39.0°F3.9°C 23% 3.0 mph NW4.8 kmh NW 5.0 mph8.0 kmh 29.84 in1010.5 mb 0.00 in0.0 mm 0.00 in0.0 mm 0.00 in0.0 mm
09:30 AM 79.7°F26.5°C 37.5°F3.1°C 22% 4.0 mph NNE6.4 kmh NNE 10.0 mph16.1 kmh 29.84 in1010.5 mb 0.00 in0.0 mm 0.00 in0.0 mm 0.00 in0.0 mm
09:45 AM 79.5°F26.4°C 37.4°F3.0°C 22% 2.0 mph NW3.2 kmh NW 7.0 mph11.3 kmh 29.85 in1010.8 mb 0.00 in0.0 mm 0.00 in0.0 mm 0.00 in0.0 mm
10:00 AM 80.1°F26.7°C 36.7°F2.6°C 21% 7.0 mph NNE11.3 kmh NNE 7.0 mph11.3 kmh 29.85 in1010.8 mb 0.00 in0.0 mm 0.00 in0.0 mm 0.00 in0.0 mm
10:15 AM 81.2°F27.3°C 37.6°F3.1°C 21% 4.0 mph N6.4 kmh N 6.0 mph9.7 kmh 29.85 in1010.8 mb 0.00 in0.0 mm 0.00 in0.0 mm 0.00 in0.0 mm
10:30 AM 81.2°F27.3°C 36.4°F2.4°C 20% 7.0 mph NE11.3 kmh NE 8.0 mph12.9 kmh 29.86 in1011.2 mb 0.00 in0.0 mm 0.00 in0.0 mm 0.00 in0.0 mm
10:45 AM 81.4°F27.4°C 37.8°F3.2°C 21% 5.0 mph NE8.0 kmh NE 10.0 mph16.1 kmh 29.87 in1011.5 mb 0.00 in0.0 mm 0.00 in0.0 mm 0.00 in0.0 mm
11:00 AM 82.0°F27.8°C 37.0°F2.8°C 20% 2.0 mph NNW3.2 kmh NNW 7.0 mph11.3 kmh 29.87 in1011.5 mb 0.00 in0.0 mm 0.00 in0.0 mm 0.00 in0.0 mm
11:15 AM 82.2°F27.9°C 37.2°F2.9°C 20% 2.0 mph N3.2 kmh N 4.0 mph6.4 kmh 29.87 in1011.5 mb 0.00 in0.0 mm 0.00 in0.0 mm 0.00 in0.0 mm
11:30 AM 83.6°F28.7°C 38.3°F3.5°C 20% 7.0 mph NNE11.3 kmh NNE 7.0 mph11.3 kmh 29.87 in1011.5 mb 0.00 in0.0 mm 0.00 in0.0 mm 0.00 in0.0 mm
11:45 AM 83.6°F28.7°C 38.3°F3.5°C 20% 4.0 mph N6.4 kmh N 7.0 mph11.3 kmh 29.86 in1011.2 mb 0.00 in0.0 mm 0.00 in0.0 mm 0.00 in0.0 mm
12:00 PM 84.3°F29.1°C 38.9°F3.8°C 20% 1.0 mph NW1.6 kmh NW 3.0 mph4.8 kmh 29.86 in1011.2 mb 0.00 in0.0 mm 0.00 in0.0 mm 0.00 in0.0 mm
12:15 PM 83.9°F28.8°C 38.6°F3.7°C 20% 4.0 mph N6.4 kmh N 7.0 mph11.3 kmh 29.87 in1011.5 mb 0.00 in0.0 mm 0.00 in0.0 mm 0.00 in0.0 mm
12:30 PM 83.4°F28.6°C 39.4°F4.1°C 21% 5.0 mph N8.0 kmh N 6.0 mph9.7 kmh 29.87 in1011.5 mb 0.00 in0.0 mm 0.00 in0.0 mm 0.00 in0.0 mm
12:45 PM 84.5°F29.2°C 37.8°F3.2°C 19% Calm Calm 5.0 mph8.0 kmh 29.87 in1011.5 mb 0.00 in0.0 mm 0.00 in0.0 mm 0.00 in0.0 mm
01:00 PM 85.3°F29.6°C 35.6°F2.0°C 17% 1.0 mph NE1.6 kmh NE 5.0 mph8.0 kmh 29.87 in1011.5 mb 0.00 in0.0 mm 0.00 in0.0 mm 0.00 in0.0 mm
01:15 PM 85.3°F29.6°C 38.4°F3.6°C 19% 5.0 mph NW8.0 kmh NW 6.0 mph9.7 kmh 29.87 in1011.5 mb 0.00 in0.0 mm 0.00 in0.0 mm 0.00 in0.0 mm
01:30 PM 84.5°F29.2°C 37.8°F3.2°C 19% Calm Calm 10.0 mph16.1 kmh 29.87 in1011.5 mb 0.00 in0.0 mm 0.00 in0.0 mm 0.00 in0.0 mm
01:45 PM 84.9°F29.4°C 39.4°F4.1°C 20% 6.0 mph N9.7 kmh N 6.0 mph9.7 kmh 29.88 in1011.9 mb 0.00 in0.0 mm 0.00 in0.0 mm 0.00 in0.0 mm
02:00 PM 84.7°F29.3°C 39.2°F4.0°C 20% 5.0 mph SW8.0 kmh SW 7.0 mph11.3 kmh 29.88 in1011.9 mb 0.00 in0.0 mm 0.00 in0.0 mm 0.00 in0.0 mm
02:15 PM 85.1°F29.5°C 38.3°F3.5°C 19% 3.0 mph WSW4.8 kmh WSW 6.0 mph9.7 kmh 29.88 in1011.9 mb 0.00 in0.0 mm 0.00 in0.0 mm 0.00 in0.0 mm
02:30 PM 84.5°F29.2°C 40.3°F4.6°C 21% Calm Calm 3.0 mph4.8 kmh 29.88 in1011.9 mb 0.00 in0.0 mm 0.00 in0.0 mm 0.00 in0.0 mm
02:45 PM 83.6°F28.7°C 38.3°F3.5°C 20% 4.0 mph WNW6.4 kmh WNW 7.0 mph11.3 kmh 29.88 in1011.9 mb 0.00 in0.0 mm 0.00 in0.0 mm 0.00 in0.0 mm
03:00 PM 84.3°F29.1°C 41.4°F5.2°C 22% 2.0 mph NNW3.2 kmh NNW 6.0 mph9.7 kmh 29.89 in1012.2 mb 0.00 in0.0 mm 0.00 in0.0 mm 0.00 in0.0 mm
03:15 PM 84.5°F29.2°C 37.8°F3.2°C 19% 5.0 mph WSW8.0 kmh WSW 9.0 mph14.5 kmh 29.88 in1011.9 mb 0.00 in0.0 mm 0.00 in0.0 mm 0.00 in0.0 mm
03:30 PM 84.9°F29.4°C 39.4°F4.1°C 20% Calm Calm 7.0 mph11.3 kmh 29.89 in1012.2 mb 0.00 in0.0 mm 0.00 in0.0 mm 0.00 in0.0 mm
03:45 PM 85.7°F29.8°C 38.7°F3.7°C 19% 2.0 mph E3.2 kmh E 3.0 mph4.8 kmh 29.89 in1012.2 mb 0.00 in0.0 mm 0.00 in0.0 mm 0.00 in0.0 mm
04:00 PM 84.5°F29.2°C 39.1°F3.9°C 20% 6.0 mph SW9.7 kmh SW 6.0 mph9.7 kmh 29.88 in1011.9 mb 0.00 in0.0 mm 0.00 in0.0 mm 0.00 in0.0 mm
04:15 PM 83.7°F28.7°C 39.7°F4.3°C 21% 3.0 mph E4.8 kmh E 3.0 mph4.8 kmh 29.88 in1011.9 mb 0.00 in0.0 mm 0.00 in0.0 mm 0.00 in0.0 mm
04:30 PM 83.2°F28.4°C 39.3°F4.1°C 21% 4.0 mph WSW6.4 kmh WSW 6.0 mph9.7 kmh 29.88 in1011.9 mb 0.00 in0.0 mm 0.00 in0.0 mm 0.00 in0.0 mm
04:45 PM 83.2°F28.4°C 39.3°F4.1°C 21% 1.0 mph NW1.6 kmh NW 4.0 mph6.4 kmh 29.89 in1012.2 mb 0.00 in0.0 mm 0.00 in0.0 mm 0.00 in0.0 mm
05:00 PM 82.6°F28.1°C 38.8°F3.8°C 21% 2.0 mph SE3.2 kmh SE 6.0 mph9.7 kmh 29.88 in1011.9 mb 0.00 in0.0 mm 0.00 in0.0 mm 0.00 in0.0 mm
05:15 PM 81.6°F27.6°C 37.9°F3.3°C 21% 2.0 mph SE3.2 kmh SE 5.0 mph8.0 kmh 29.89 in1012.2 mb 0.00 in0.0 mm 0.00 in0.0 mm 0.00 in0.0 mm
05:30 PM 81.6°F27.6°C 37.9°F3.3°C 21% 2.0 mph NW3.2 kmh NW 6.0 mph9.7 kmh 29.89 in1012.2 mb 0.00 in0.0 mm 0.00 in0.0 mm 0.00 in0.0 mm
05:45 PM 81.8°F27.7°C 36.9°F2.7°C 20% 6.0 mph W9.7 kmh W 9.0 mph14.5 kmh 29.89 in1012.2 mb 0.00 in0.0 mm 0.00 in0.0 mm 0.00 in0.0 mm
06:00 PM 80.3°F26.8°C 38.0°F3.3°C 22% Calm Calm 3.0 mph4.8 kmh 29.90 in1012.5 mb 0.00 in0.0 mm 0.00 in0.0 mm 0.00 in0.0 mm
06:15 PM 80.1°F26.7°C 37.9°F3.3°C 22% Calm Calm 2.0 mph3.2 kmh 29.90 in1012.5 mb 0.00 in0.0 mm 0.00 in0.0 mm 0.00 in0.0 mm
06:30 PM 79.0°F26.1°C 38.1°F3.4°C 23% 4.0 mph SSW6.4 kmh SSW 10.0 mph16.1 kmh 29.89 in1012.2 mb 0.00 in0.0 mm 0.00 in0.0 mm 0.00 in0.0 mm
06:45 PM 78.6°F25.9°C 37.7°F3.2°C 23% Calm Calm 3.0 mph4.8 kmh 29.90 in1012.5 mb 0.00 in0.0 mm 0.00 in0.0 mm 0.00 in0.0 mm
07:00 PM 77.7°F25.4°C 38.1°F3.4°C 24% 2.0 mph WSW3.2 kmh WSW 4.0 mph6.4 kmh 29.90 in1012.5 mb 0.00 in0.0 mm 0.00 in0.0 mm 0.00 in0.0 mm
07:15 PM 77.2°F25.1°C 37.7°F3.2°C 24% Calm Calm 2.0 mph3.2 kmh 29.92 in1013.2 mb 0.00 in0.0 mm 0.00 in0.0 mm 0.00 in0.0 mm
07:30 PM 76.6°F24.8°C 36.1°F2.3°C 23% 1.0 mph S1.6 kmh S 4.0 mph6.4 kmh 29.86 in1011.2 mb 0.00 in0.0 mm 0.00 in0.0 mm 0.00 in0.0 mm
07:45 PM 76.3°F24.6°C 35.8°F2.1°C 23% 2.0 mph S3.2 kmh S 2.0 mph3.2 kmh 29.87 in1011.5 mb 0.00 in0.0 mm 0.00 in0.0 mm 0.00 in0.0 mm
08:00 PM 75.4°F24.1°C 36.1°F2.3°C 24% Calm Calm -- 29.88 in1011.9 mb 0.00 in0.0 mm 0.00 in0.0 mm 0.00 in0.0 mm
08:15 PM 74.5°F23.6°C 35.4°F1.9°C 24% 2.0 mph S3.2 kmh S 3.0 mph4.8 kmh 29.88 in1011.9 mb 0.00 in0.0 mm 0.00 in0.0 mm 0.00 in0.0 mm
08:30 PM 74.0°F23.3°C 36.0°F2.2°C 25% 4.0 mph S6.4 kmh S 5.0 mph8.0 kmh 29.84 in1010.5 mb 0.00 in0.0 mm 0.00 in0.0 mm 0.00 in0.0 mm
08:45 PM 72.9°F22.7°C 36.0°F2.2°C 26% 4.0 mph SSE6.4 kmh SSE 5.0 mph8.0 kmh 29.84 in1010.5 mb 0.00 in0.0 mm 0.00 in0.0 mm 0.00 in0.0 mm
09:00 PM 72.4°F22.4°C 36.6°F2.6°C 27% 3.0 mph SSE4.8 kmh SSE 6.0 mph9.7 kmh 29.85 in1010.8 mb 0.00 in0.0 mm 0.00 in0.0 mm 0.00 in0.0 mm
09:15 PM 71.2°F21.8°C 35.5°F1.9°C 27% 4.0 mph SSE6.4 kmh SSE 5.0 mph8.0 kmh 29.86 in1011.2 mb 0.00 in0.0 mm 0.00 in0.0 mm 0.00 in0.0 mm
09:30 PM 71.2°F21.8°C 37.4°F3.0°C 29% 4.0 mph SSE6.4 kmh SSE 4.0 mph6.4 kmh 29.87 in1011.5 mb 0.00 in0.0 mm 0.00 in0.0 mm 0.00 in0.0 mm
09:45 PM 69.9°F21.1°C 37.1°F2.8°C 30% 4.0 mph SSE6.4 kmh SSE 4.0 mph6.4 kmh 29.87 in1011.5 mb 0.00 in0.0 mm 0.00 in0.0 mm 0.00 in0.0 mm
10:00 PM 68.5°F20.3°C 37.5°F3.1°C 32% 3.0 mph SSE4.8 kmh SSE 4.0 mph6.4 kmh 29.88 in1011.9 mb 0.00 in0.0 mm 0.00 in0.0 mm 0.00 in0.0 mm
10:15 PM 68.7°F20.4°C 38.5°F3.6°C 33% 6.0 mph SSE9.7 kmh SSE 6.0 mph9.7 kmh 29.88 in1011.9 mb 0.00 in0.0 mm 0.00 in0.0 mm 0.00 in0.0 mm
10:30 PM 67.7°F19.8°C 38.4°F3.6°C 34% 4.0 mph SSE6.4 kmh SSE 4.0 mph6.4 kmh 29.88 in1011.9 mb 0.00 in0.0 mm 0.00 in0.0 mm 0.00 in0.0 mm
10:45 PM 67.2°F19.6°C 37.9°F3.3°C 34% 5.0 mph SSE8.0 kmh SSE 5.0 mph8.0 kmh 29.88 in1011.9 mb 0.00 in0.0 mm 0.00 in0.0 mm 0.00 in0.0 mm
11:00 PM 67.2°F19.6°C 39.4°F4.1°C 36% 4.0 mph SSE6.4 kmh SSE 4.0 mph6.4 kmh 29.88 in1011.9 mb 0.00 in0.0 mm 0.00 in0.0 mm 0.00 in0.0 mm
11:15 PM 66.5°F19.2°C 38.8°F3.8°C 36% 4.0 mph SSE6.4 kmh SSE 5.0 mph8.0 kmh 29.88 in1011.9 mb 0.00 in0.0 mm 0.00 in0.0 mm 0.00 in0.0 mm
11:30 PM 66.0°F18.9°C 39.0°F3.9°C 37% 4.0 mph SSE6.4 kmh SSE 5.0 mph8.0 kmh 29.88 in1011.9 mb 0.00 in0.0 mm 0.00 in0.0 mm 0.00 in0.0 mm
11:45 PM 65.7°F18.7°C 39.4°F4.1°C 38% Calm Calm 3.0 mph4.8 kmh 29.88 in1011.9 mb 0.00 in0.0 mm 0.00 in0.0 mm 0.00 in0.0 mm